createdAt,value
2023-03-01T00:01:40.779Z,28.20
2023-03-01T00:04:09.371Z,26.57
2023-03-01T00:06:38.376Z,25.83
2023-03-01T00:09:06.373Z,27.63
2023-03-01T00:11:35.642Z,24.70
2023-03-01T00:14:05.760Z,25.60
2023-03-01T00:16:40.018Z,28.80
2023-03-01T00:19:10.621Z,28.87
2023-03-01T00:21:39.800Z,27.37
2023-03-01T00:24:11.351Z,26.63
2023-03-01T00:26:39.367Z,25.30
2023-03-01T00:29:07.616Z,26.97
2023-03-01T00:31:38.447Z,23.43
2023-03-01T00:34:08.349Z,26.43
2023-03-01T00:36:41.369Z,26.93
2023-03-01T00:39:15.703Z,23.83
2023-03-01T00:41:46.163Z,23.13
2023-03-01T00:44:16.005Z,24.63
2023-03-01T00:46:45.784Z,24.43
2023-03-01T00:49:15.615Z,24.00
2023-03-01T00:51:44.074Z,26.57
2023-03-01T00:54:12.717Z,25.73
2023-03-01T00:56:42.095Z,26.13
2023-03-01T00:59:09.874Z,24.00
2023-03-01T01:01:38.507Z,26.07
2023-03-01T01:04:10.944Z,28.43
2023-03-01T01:06:43.363Z,28.70
2023-03-01T01:09:18.392Z,27.80
2023-03-01T01:11:49.164Z,27.23
2023-03-01T01:14:19.067Z,26.37
2023-03-01T01:16:46.956Z,24.37
2023-03-01T01:19:17.314Z,23.77
2023-03-01T01:21:46.030Z,28.13
2023-03-01T01:24:15.165Z,25.00
2023-03-01T01:26:44.236Z,28.47
2023-03-01T01:29:12.249Z,25.40
2023-03-01T01:31:42.885Z,23.77
2023-03-01T01:34:19.313Z,25.93
2023-03-01T01:36:50.851Z,26.27
2023-03-01T01:39:19.225Z,32.37
2023-03-01T01:41:47.792Z,28.87
2023-03-01T01:44:20.041Z,26.40
2023-03-01T01:46:52.446Z,26.80
2023-03-01T01:49:27.665Z,26.63
2023-03-01T01:52:02.910Z,31.07
2023-03-01T01:54:37.646Z,32.53
2023-03-01T01:57:09.493Z,25.90
2023-03-01T01:59:38.986Z,29.23
2023-03-01T02:02:08.499Z,32.47
2023-03-01T02:04:37.973Z,26.43
2023-03-01T02:07:11.015Z,33.10
2023-03-01T02:09:39.271Z,25.13
2023-03-01T02:12:07.951Z,29.77
2023-03-01T02:14:36.672Z,26.03
2023-03-01T02:17:05.110Z,28.50
2023-03-01T02:19:51.129Z,35.33
2023-03-01T02:22:26.234Z,27.13
2023-03-01T02:25:04.830Z,32.20
2023-03-01T02:27:41.620Z,30.10
2023-03-01T02:30:14.038Z,28.33
2023-03-01T02:32:42.776Z,29.47
2023-03-01T02:35:13.944Z,28.73
2023-03-01T02:37:43.388Z,28.67
2023-03-01T02:40:16.642Z,30.60
2023-03-01T02:42:51.377Z,28.83
2023-03-01T02:45:20.798Z,26.57
2023-03-01T02:47:48.743Z,35.50
2023-03-01T02:50:27.352Z,26.57
2023-03-01T02:53:03.852Z,27.83
2023-03-01T02:55:32.521Z,29.20
2023-03-01T02:58:04.066Z,33.57
2023-03-01T03:00:41.900Z,27.93
2023-03-01T03:03:11.579Z,31.47
2023-03-01T03:05:40.238Z,28.43
2023-03-01T03:08:08.682Z,28.40
2023-03-01T03:10:40.479Z,30.70
2023-03-01T03:13:10.466Z,29.67
2023-03-01T03:15:42.632Z,35.10
2023-03-01T03:18:14.606Z,28.17
2023-03-01T03:20:43.667Z,26.83
2023-03-01T03:23:12.841Z,28.10
2023-03-01T03:25:41.637Z,31.53
2023-03-01T03:28:11.637Z,31.77
2023-03-01T03:30:43.657Z,27.30
2023-03-01T03:33:15.461Z,30.90
2023-03-01T03:35:46.368Z,30.53
2023-03-01T03:38:20.528Z,28.13
2023-03-01T03:40:52.279Z,28.73
2023-03-01T03:43:22.632Z,30.87
2023-03-01T03:45:54.309Z,31.33
2023-03-01T03:48:24.184Z,30.77
2023-03-01T03:50:55.067Z,27.23
2023-03-01T03:53:25.611Z,38.37
2023-03-01T03:55:53.839Z,26.83
2023-03-01T03:58:23.750Z,33.37
2023-03-01T04:00:54.899Z,30.57
2023-03-01T04:03:23.052Z,30.70
2023-03-01T04:05:52.396Z,27.93
2023-03-01T04:08:21.919Z,32.67
2023-03-01T04:10:51.669Z,32.23
2023-03-01T04:13:22.398Z,30.37
2023-03-01T04:15:51.515Z,30.43
2023-03-01T04:18:22.632Z,28.67
2023-03-01T04:20:52.930Z,33.13
2023-03-01T04:23:22.860Z,32.63
2023-03-01T04:25:56.462Z,33.13
2023-03-01T04:28:26.453Z,32.70
2023-03-01T04:30:55.268Z,29.50
2023-03-01T04:33:25.453Z,32.93
2023-03-01T04:35:53.713Z,28.70
2023-03-01T04:38:23.199Z,32.13
2023-03-01T04:40:51.498Z,36.57
2023-03-01T04:43:19.356Z,36.13
2023-03-01T04:45:50.320Z,29.67
2023-03-01T04:48:18.081Z,29.83
2023-03-01T04:50:48.124Z,32.23
2023-03-01T04:53:16.329Z,30.37
2023-03-01T04:55:44.705Z,30.77
2023-03-01T04:58:12.728Z,31.27
2023-03-01T05:00:40.537Z,30.60
2023-03-01T05:03:08.389Z,34.33
2023-03-01T05:05:38.276Z,32.93
2023-03-01T05:08:08.973Z,34.83
2023-03-01T05:10:39.721Z,30.33
2023-03-01T05:13:08.454Z,31.17
2023-03-01T05:15:37.501Z,35.33
2023-03-01T05:18:08.162Z,34.63
2023-03-01T05:20:37.184Z,28.93
2023-03-01T05:23:08.071Z,29.10
2023-03-01T05:25:41.178Z,34.30
2023-03-01T05:28:14.171Z,36.20
2023-03-01T05:30:43.962Z,35.40
2023-03-01T05:33:14.295Z,34.43
2023-03-01T05:35:43.365Z,31.07
2023-03-01T05:38:14.335Z,32.73
2023-03-01T05:40:44.552Z,28.93
2023-03-01T05:43:13.834Z,31.07
2023-03-01T05:45:42.958Z,33.27
2023-03-01T05:48:13.354Z,36.97
2023-03-01T05:50:44.546Z,31.90
2023-03-01T05:53:13.971Z,33.73
2023-03-01T05:55:44.755Z,31.87
2023-03-01T05:58:16.092Z,32.17
2023-03-01T06:00:45.317Z,32.30
2023-03-01T06:03:14.533Z,30.33
2023-03-01T06:05:42.810Z,30.47
2023-03-01T06:08:12.591Z,28.33
2023-03-01T06:10:41.541Z,38.90
2023-03-01T06:13:11.076Z,34.47
2023-03-01T06:15:39.090Z,37.67
2023-03-01T06:18:06.972Z,34.47
2023-03-01T06:20:34.842Z,30.10
2023-03-01T06:23:03.910Z,32.80
2023-03-01T06:25:32.064Z,35.23
2023-03-01T06:28:00.084Z,35.00
2023-03-01T06:30:29.226Z,29.87
2023-03-01T06:33:02.257Z,30.77
2023-03-01T06:35:31.596Z,34.83
2023-03-01T06:38:01.524Z,34.77
2023-03-01T06:40:29.811Z,31.97
2023-03-01T06:42:57.596Z,30.47
2023-03-01T06:45:27.304Z,42.30
2023-03-01T06:48:03.650Z,34.10
2023-03-01T06:50:33.304Z,32.53
2023-03-01T06:53:01.975Z,33.50
2023-03-01T06:55:30.908Z,31.67
2023-03-01T06:58:00.049Z,32.27
2023-03-01T07:00:29.907Z,35.83
2023-03-01T07:03:02.899Z,35.83
2023-03-01T07:05:31.574Z,33.47
2023-03-01T07:07:59.533Z,34.13
2023-03-01T07:10:27.342Z,27.23
2023-03-01T07:12:57.052Z,32.17
2023-03-01T07:15:28.301Z,34.50
2023-03-01T07:17:56.389Z,34.07
2023-03-01T07:20:28.386Z,31.40
2023-03-01T07:22:57.429Z,32.30
2023-03-01T07:25:26.264Z,35.00
2023-03-01T07:27:55.974Z,31.40
2023-03-01T07:30:26.733Z,34.03
2023-03-01T07:32:55.800Z,34.60
2023-03-01T07:35:27.085Z,32.30
2023-03-01T07:37:55.195Z,34.87
2023-03-01T07:40:23.019Z,28.03
2023-03-01T07:42:50.869Z,29.13
2023-03-01T07:45:18.888Z,31.47
2023-03-01T07:47:46.739Z,31.80
2023-03-01T07:50:14.695Z,29.50
2023-03-01T07:52:46.803Z,29.90
2023-03-01T07:55:14.810Z,31.10
2023-03-01T07:57:42.701Z,33.83
2023-03-01T08:00:14.097Z,36.63
2023-03-01T08:02:42.910Z,32.00
2023-03-01T08:05:12.988Z,33.47
2023-03-01T08:07:44.955Z,30.97
2023-03-01T08:10:13.832Z,36.27
2023-03-01T08:12:42.456Z,32.27
2023-03-01T08:15:11.786Z,35.90
2023-03-01T08:17:40.400Z,35.47
2023-03-01T08:20:08.920Z,31.13
2023-03-01T08:22:36.911Z,31.70
2023-03-01T08:25:06.930Z,33.73
2023-03-01T08:27:34.712Z,35.47
2023-03-01T08:30:02.669Z,32.97
2023-03-01T08:32:30.595Z,36.00
2023-03-01T08:34:58.623Z,33.70
2023-03-01T08:37:28.796Z,36.33
2023-03-01T08:39:56.972Z,32.93
2023-03-01T08:42:27.738Z,35.57
2023-03-01T08:44:56.033Z,33.37
2023-03-01T08:47:25.198Z,34.37
2023-03-01T08:49:53.753Z,31.63
2023-03-01T08:52:21.975Z,34.87
2023-03-01T08:54:49.957Z,39.70
2023-03-01T08:57:17.891Z,37.87
2023-03-01T08:59:47.088Z,32.63
2023-03-01T09:02:16.795Z,39.83
2023-03-01T09:04:45.266Z,35.53
2023-03-01T09:07:13.172Z,34.43
2023-03-01T09:09:42.912Z,35.33
2023-03-01T09:12:11.623Z,39.03
2023-03-01T09:14:39.966Z,35.07
2023-03-01T09:17:09.261Z,31.60
2023-03-01T09:19:37.430Z,31.63
2023-03-01T09:22:05.951Z,31.63
2023-03-01T09:24:33.754Z,34.13
2023-03-01T09:27:01.898Z,33.77
2023-03-01T09:29:30.527Z,34.73
2023-03-01T09:31:58.560Z,33.40
2023-03-01T09:34:27.949Z,38.27
2023-03-01T09:36:55.950Z,35.40
2023-03-01T09:39:23.794Z,33.57
2023-03-01T09:42:00.790Z,33.77
2023-03-01T09:44:34.246Z,34.50
2023-03-01T09:47:03.133Z,40.37
2023-03-01T09:49:35.221Z,38.87
2023-03-01T09:52:22.163Z,34.13
2023-03-01T09:54:55.282Z,33.63
2023-03-01T09:57:30.838Z,37.87
2023-03-01T10:00:08.250Z,33.97
2023-03-01T10:02:44.717Z,37.97
2023-03-01T10:05:31.566Z,37.97
2023-03-01T10:08:16.895Z,36.53
2023-03-01T10:10:48.127Z,34.37
2023-03-01T10:13:21.514Z,37.10
2023-03-01T10:15:56.347Z,37.23
2023-03-01T10:18:28.602Z,34.13
2023-03-01T10:21:00.686Z,36.77
2023-03-01T10:23:30.745Z,34.30
2023-03-01T10:26:19.817Z,32.80
2023-03-01T10:28:59.142Z,35.37
2023-03-01T10:31:37.965Z,31.83
2023-03-01T10:34:11.818Z,36.43
2023-03-01T10:36:43.405Z,31.57
2023-03-01T10:39:17.238Z,39.17
2023-03-01T10:41:59.332Z,38.70
2023-03-01T10:44:40.085Z,34.10
2023-03-01T10:47:15.924Z,34.37
2023-03-01T10:49:58.381Z,34.87
2023-03-01T10:52:31.240Z,39.47
2023-03-01T10:55:01.381Z,32.13
2023-03-01T10:57:42.794Z,33.07
2023-03-01T11:00:23.794Z,32.40
2023-03-01T11:03:03.595Z,36.07
2023-03-01T11:05:34.501Z,36.87
2023-03-01T11:08:05.266Z,37.60
2023-03-01T11:10:35.109Z,30.77
2023-03-01T11:13:15.732Z,30.80
2023-03-01T11:15:44.365Z,28.67
2023-03-01T11:18:25.099Z,31.37
2023-03-01T11:21:01.600Z,37.67
2023-03-01T11:23:32.806Z,32.30
2023-03-01T11:26:03.707Z,29.73
2023-03-01T11:28:32.168Z,33.20
2023-03-01T11:31:08.646Z,31.60
2023-03-01T11:33:43.161Z,30.80
2023-03-01T11:36:18.660Z,34.43
2023-03-01T11:38:48.257Z,37.43
2023-03-01T11:41:19.501Z,27.47
2023-03-01T11:43:53.074Z,33.40
2023-03-01T11:46:40.113Z,37.47
2023-03-01T11:49:21.128Z,34.40
2023-03-01T11:51:56.455Z,30.50
2023-03-01T11:54:38.016Z,29.43
2023-03-01T11:57:16.372Z,30.93
2023-03-01T12:00:01.165Z,34.63
2023-03-01T12:02:59.081Z,30.87
2023-03-01T12:05:49.912Z,31.77
2023-03-01T12:08:26.380Z,33.03
2023-03-01T12:11:05.692Z,30.77
2023-03-01T12:13:54.235Z,28.00
2023-03-01T12:16:39.225Z,29.73
2023-03-01T12:19:23.570Z,29.17
2023-03-01T12:22:10.418Z,32.27
2023-03-01T12:24:56.297Z,30.20
2023-03-01T12:27:45.373Z,29.40
2023-03-01T12:30:27.855Z,27.27
2023-03-01T12:33:10.114Z,33.83
2023-03-01T12:35:50.054Z,36.97
2023-03-01T12:38:35.043Z,26.00
2023-03-01T12:41:30.251Z,29.60
2023-03-01T12:44:15.354Z,30.70
2023-03-01T12:46:54.170Z,31.37
2023-03-01T12:49:27.017Z,26.17
2023-03-01T12:52:01.592Z,27.60
2023-03-01T12:54:32.932Z,33.07
2023-03-01T12:57:08.333Z,28.20
2023-03-01T12:59:42.064Z,28.80
2023-03-01T13:02:17.795Z,26.73
2023-03-01T13:05:09.436Z,27.20
2023-03-01T13:07:43.939Z,28.00
2023-03-01T13:10:24.779Z,28.93
2023-03-01T13:13:05.107Z,24.40
2023-03-01T13:15:36.807Z,24.57
2023-03-01T13:18:06.915Z,24.57
2023-03-01T13:20:49.024Z,30.77
2023-03-01T13:23:27.576Z,24.83
2023-03-01T13:26:16.625Z,23.60
2023-03-01T13:29:02.445Z,31.40
2023-03-01T13:32:08.068Z,32.90
2023-03-01T13:34:50.797Z,28.93
2023-03-01T13:37:38.589Z,27.30
2023-03-01T13:40:43.204Z,31.03
2023-03-01T13:43:34.508Z,23.10
2023-03-01T13:46:04.039Z,27.17
2023-03-01T13:48:35.330Z,26.20
2023-03-01T13:51:06.821Z,30.53
2023-03-01T13:53:39.446Z,27.10
2023-03-01T13:56:11.251Z,29.17
2023-03-01T13:58:54.490Z,27.87
2023-03-01T14:01:25.586Z,30.50
2023-03-01T14:03:55.460Z,25.93
2023-03-01T14:06:25.763Z,30.93
2023-03-01T14:09:04.435Z,29.10
2023-03-01T14:12:05.219Z,29.83
2023-03-01T14:14:50.991Z,24.70
2023-03-01T14:17:49.948Z,26.40
2023-03-01T14:20:22.815Z,28.23
2023-03-01T14:22:54.333Z,27.10
2023-03-01T14:25:27.285Z,31.07
2023-03-01T14:28:04.548Z,25.17
2023-03-01T14:30:37.389Z,27.13
2023-03-01T14:33:07.603Z,33.70
2023-03-01T14:35:38.211Z,30.60
2023-03-01T14:38:06.120Z,26.80
2023-03-01T14:40:36.222Z,28.97
2023-03-01T14:43:11.777Z,29.10
2023-03-01T14:45:39.746Z,28.50
2023-03-01T14:48:09.436Z,29.53
2023-03-01T14:50:44.408Z,28.93
2023-03-01T14:53:19.960Z,28.93
2023-03-01T14:55:52.912Z,29.87
2023-03-01T14:58:23.639Z,27.67
2023-03-01T15:00:54.227Z,26.37
2023-03-01T15:03:35.162Z,29.40
2023-03-01T15:06:06.414Z,31.17
2023-03-01T15:08:35.919Z,31.50
2023-03-01T15:11:09.051Z,26.73
2023-03-01T15:13:37.685Z,27.13
2023-03-01T15:16:11.292Z,30.13
2023-03-01T15:18:40.329Z,38.77
2023-03-01T15:21:12.239Z,27.13
2023-03-01T15:23:42.083Z,30.03
2023-03-01T15:26:30.730Z,37.90
2023-03-01T15:29:01.288Z,27.77
2023-03-01T15:31:39.826Z,29.70
2023-03-01T15:34:24.837Z,32.87
2023-03-01T15:36:56.145Z,30.33
2023-03-01T15:39:39.942Z,27.73
2023-03-01T15:42:12.266Z,32.47
2023-03-01T15:44:44.331Z,32.37
2023-03-01T15:47:27.926Z,31.00
2023-03-01T15:49:57.303Z,34.67
2023-03-01T15:52:30.780Z,29.57
2023-03-01T15:55:04.581Z,29.03
2023-03-01T15:57:32.393Z,31.63
2023-03-01T16:00:00.419Z,30.70
2023-03-01T16:02:28.301Z,30.37
2023-03-01T16:04:57.271Z,30.23
2023-03-01T16:07:25.415Z,28.33
2023-03-01T16:09:54.606Z,32.30
2023-03-01T16:12:22.517Z,33.83
2023-03-01T16:14:50.545Z,27.00
2023-03-01T16:17:18.526Z,28.70
2023-03-01T16:19:46.289Z,30.07
2023-03-01T16:22:14.121Z,30.97
2023-03-01T16:24:42.433Z,32.17
2023-03-01T16:27:11.832Z,31.03
2023-03-01T16:29:39.613Z,31.93
2023-03-01T16:32:07.650Z,28.07
2023-03-01T16:34:35.818Z,31.90
2023-03-01T16:37:03.662Z,32.37
2023-03-01T16:39:31.518Z,28.70
2023-03-01T16:42:02.227Z,31.57
2023-03-01T16:44:31.711Z,30.93
2023-03-01T16:46:59.512Z,30.27
2023-03-01T16:49:27.372Z,34.67
2023-03-01T16:51:56.114Z,31.00
2023-03-01T16:54:23.903Z,30.43
2023-03-01T16:56:51.672Z,28.53
2023-03-01T16:59:20.362Z,30.80
2023-03-01T17:01:49.540Z,31.97
2023-03-01T17:04:18.714Z,27.83
2023-03-01T17:06:47.800Z,34.50
2023-03-01T17:09:17.709Z,25.23
2023-03-01T17:11:45.692Z,24.70
2023-03-01T17:14:13.477Z,37.17
2023-03-01T17:16:41.278Z,33.23
2023-03-01T17:19:10.700Z,28.37
2023-03-01T17:21:38.732Z,31.33
2023-03-01T17:24:06.799Z,30.50
2023-03-01T17:26:34.568Z,26.70
2023-03-01T17:29:03.824Z,42.37
2023-03-01T17:31:32.288Z,41.30
2023-03-01T17:34:01.740Z,35.13
2023-03-01T17:36:33.573Z,32.50
2023-03-01T17:39:01.429Z,31.10
2023-03-01T17:41:29.555Z,31.50
2023-03-01T17:43:57.492Z,30.53
2023-03-01T17:46:26.926Z,34.73
2023-03-01T17:48:54.771Z,37.23
2023-03-01T17:51:23.164Z,38.87
2023-03-01T17:53:52.278Z,37.30
2023-03-01T17:56:20.139Z,33.03
2023-03-01T17:58:47.866Z,34.73
2023-03-01T18:01:17.921Z,33.40
2023-03-01T18:03:47.557Z,28.43
2023-03-01T18:06:18.573Z,33.77
2023-03-01T18:08:48.950Z,33.67
2023-03-01T18:11:18.984Z,29.87
2023-03-01T18:13:47.837Z,38.63
2023-03-01T18:16:17.349Z,35.77
2023-03-01T18:18:46.128Z,34.97
2023-03-01T18:21:15.359Z,31.90
2023-03-01T18:23:43.356Z,32.27
2023-03-01T18:26:15.675Z,30.60
2023-03-01T18:28:47.244Z,32.57
2023-03-01T18:31:18.417Z,32.90
2023-03-01T18:33:46.782Z,36.47
2023-03-01T18:36:21.607Z,35.10
2023-03-01T18:38:49.729Z,41.57
2023-03-01T18:41:17.928Z,34.83
2023-03-01T18:43:47.068Z,35.33
2023-03-01T18:46:15.003Z,44.00
2023-03-01T18:48:42.972Z,38.07
2023-03-01T18:51:13.150Z,40.30
2023-03-01T18:53:41.266Z,40.50
2023-03-01T18:56:09.876Z,41.30
2023-03-01T18:58:38.450Z,35.53
2023-03-01T19:01:13.327Z,33.93
2023-03-01T19:03:41.140Z,37.63
2023-03-01T19:06:09.083Z,35.07
2023-03-01T19:08:37.125Z,35.07
2023-03-01T19:11:06.639Z,36.33
2023-03-01T19:13:37.424Z,33.33
2023-03-01T19:16:08.838Z,34.30
2023-03-01T19:18:37.137Z,33.10
2023-03-01T19:21:06.018Z,33.70
2023-03-01T19:23:35.050Z,36.33
2023-03-01T19:26:04.447Z,36.23
2023-03-01T19:28:33.016Z,33.93
2023-03-01T19:31:02.451Z,35.17
2023-03-01T19:33:34.051Z,34.10
2023-03-01T19:36:02.555Z,32.97
2023-03-01T19:38:30.855Z,38.47
2023-03-01T19:40:58.915Z,35.63
2023-03-01T19:43:26.763Z,39.20
2023-03-01T19:45:56.161Z,37.90
2023-03-01T19:48:24.668Z,35.17
2023-03-01T19:50:54.396Z,36.33
2023-03-01T19:53:22.853Z,39.10
2023-03-01T19:55:53.026Z,39.40
2023-03-01T19:58:21.263Z,37.53
2023-03-01T20:00:49.468Z,39.27
2023-03-01T20:03:18.083Z,40.37
2023-03-01T20:05:46.644Z,43.63
2023-03-01T20:08:16.078Z,40.03
2023-03-01T20:10:44.310Z,39.97
2023-03-01T20:13:12.461Z,43.30
2023-03-01T20:15:42.717Z,37.97
2023-03-01T20:18:11.848Z,39.67
2023-03-01T20:20:39.621Z,39.40
2023-03-01T20:23:07.455Z,43.37
2023-03-01T20:25:37.522Z,40.83
2023-03-01T20:28:06.228Z,41.73
2023-03-01T20:30:34.044Z,38.37
2023-03-01T20:33:01.776Z,40.57
2023-03-01T20:35:32.677Z,42.37
2023-03-01T20:38:00.944Z,44.97
2023-03-01T20:40:28.859Z,45.40
2023-03-01T20:42:58.695Z,37.03
2023-03-01T20:45:28.271Z,50.17
2023-03-01T20:47:56.306Z,55.67
2023-03-01T20:50:24.052Z,45.47
2023-03-01T20:52:51.923Z,41.13
2023-03-01T20:55:20.107Z,45.40
2023-03-01T20:57:47.940Z,44.33
2023-03-01T21:00:18.385Z,44.10
2023-03-01T21:02:46.231Z,42.13
2023-03-01T21:05:13.978Z,37.00
2023-03-01T21:07:42.860Z,39.87
2023-03-01T21:10:12.258Z,35.37
2023-03-01T21:12:40.187Z,42.03
2023-03-01T21:15:11.247Z,38.17
2023-03-01T21:17:40.621Z,35.00
2023-03-01T21:20:09.772Z,36.27
2023-03-01T21:22:37.647Z,39.60
2023-03-01T21:25:06.146Z,36.70
2023-03-01T21:27:37.512Z,35.63
2023-03-01T21:30:06.374Z,36.80
2023-03-01T21:32:34.248Z,33.43
2023-03-01T21:35:03.517Z,34.53
2023-03-01T21:37:32.283Z,32.60
2023-03-01T21:40:00.397Z,35.63
2023-03-01T21:42:28.115Z,34.07
2023-03-01T21:44:55.894Z,30.17
2023-03-01T21:47:23.759Z,31.60
2023-03-01T21:49:51.580Z,33.93
2023-03-01T21:52:20.811Z,38.60
2023-03-01T21:54:51.990Z,34.80
2023-03-01T21:57:20.110Z,32.53
2023-03-01T21:59:48.042Z,35.23
2023-03-01T22:02:15.994Z,31.97
2023-03-01T22:04:43.862Z,33.37
2023-03-01T22:07:11.756Z,33.97
2023-03-01T22:09:41.008Z,35.87
2023-03-01T22:12:08.823Z,35.33
2023-03-01T22:14:36.655Z,35.63
2023-03-01T22:17:04.538Z,31.97
2023-03-01T22:19:32.434Z,41.00
2023-03-01T22:22:00.207Z,34.90
2023-03-01T22:24:29.255Z,34.53
2023-03-01T22:26:58.461Z,34.90
2023-03-01T22:29:29.031Z,35.60
2023-03-01T22:31:58.330Z,35.57
2023-03-01T22:34:26.543Z,34.87
2023-03-01T22:36:54.446Z,34.70
2023-03-01T22:39:23.245Z,35.80
2023-03-01T22:41:51.430Z,34.57
2023-03-01T22:44:22.894Z,41.43
2023-03-01T22:46:51.361Z,36.53
2023-03-01T22:49:19.404Z,40.37
2023-03-01T22:51:48.201Z,35.23
2023-03-01T22:54:17.901Z,36.83
2023-03-01T22:56:46.365Z,32.57
2023-03-01T22:59:16.243Z,33.17
2023-03-01T23:01:47.752Z,37.57
2023-03-01T23:04:18.260Z,39.00
2023-03-01T23:06:54.076Z,36.20
2023-03-01T23:09:24.608Z,29.67
2023-03-01T23:11:53.149Z,36.27
2023-03-01T23:14:21.470Z,37.40
2023-03-01T23:16:51.711Z,34.97
2023-03-01T23:19:20.310Z,34.10
2023-03-01T23:21:50.104Z,32.10
2023-03-01T23:24:19.720Z,34.67
2023-03-01T23:26:51.765Z,43.77
2023-03-01T23:29:20.729Z,64.07
2023-03-01T23:31:50.651Z,82.90
2023-03-01T23:34:18.992Z,42.57
2023-03-01T23:36:46.913Z,37.87
2023-03-01T23:39:15.339Z,36.17
2023-03-01T23:41:43.235Z,39.30
2023-03-01T23:44:16.280Z,38.23
2023-03-01T23:46:45.777Z,39.07
2023-03-01T23:49:16.868Z,37.37
2023-03-01T23:51:47.628Z,41.33
2023-03-01T23:54:17.767Z,35.47
2023-03-01T23:56:46.997Z,40.23
2023-03-01T23:59:17.307Z,40.10
